METAR AND TAF INFORMATION
METAR FOR LFRJ
ADDS - METARS form results

(0245 UTC 07 October 2022)
Data provider http://aviationweather.gov/metar/data/
 
METAR text: LFRJ 070230Z AUTO 19004KT 6000 NSC 09/09 Q1026
Conditions at: LFRJ (LANDIVISIAU (NAV, FR) observed 0230 UTC 07 October 2022
Temperature: 9.0°C (48°F)
Dewpoint: 9.0°C (48°F) [RH = 100%]
Pressure (altimeter): 30.30 inches Hg (1026.0 mb)
Winds: from the S (190 degrees) at 5 MPH (4 knots; 2.1 m/s)
Visibility: 4 miles ( 6 km)
Ceiling: at least 12,000 feet AGL
Clouds: sky clear below 12,000 feet AGL
Weather: no significant weather observed at this time

METAR text: LFRJ 070200Z AUTO 17005KT CAVOK 09/09 Q1026
Conditions at: LFRJ (LANDIVISIAU (NAV, FR) observed 0200 UTC 07 October 2022
Temperature: 9.0°C (48°F)
Dewpoint: 9.0°C (48°F) [RH = 100%]
Pressure (altimeter): 30.30 inches Hg (1026.0 mb)
Winds: from the S (170 degrees) at 6 MPH (5 knots; 2.6 m/s)
Visibility: 6 or more miles (10+ km)
Ceiling: ceiling and visibility are OK
Clouds: unknown
Weather: no significant weather observed at this time

Forecast for: LFRJ (LANDIVISIAU (NAV, FR)
Text: TAF LFRJ 062000Z 0621/0706 23005KT CAVOK
Forecast period: 2100 to 2200 UTC 06 October 2022
Forecast type: FROM: standard forecast or significant change
Winds: from the SW (230 degrees) at 6 MPH (5 knots; 2.6 m/s)
Visibility: 6 or more miles (10+ km)
Ceiling: unknown
Clouds: missing
Weather: NSW  (no significant weather)
Text: BECMG 0622/0701 2500 BR
Forecast period: 2200 UTC 06 October 2022 to 0600 UTC 07 October 2022
Forecast type: BECOMING: Conditions expected to become as follows by 0100 UTC 07 October 2022
Winds: from the SW (230 degrees) at 6 MPH (5 knots; 2.6 m/s)
Visibility: 1.55 miles (2.49 km)
Ceiling: unknown
Clouds: missing
Weather: BR  (mist)
Text: PROB40
Forecast period: 0300 to 0600 UTC 07 October 2022
Forecast type: TEMPORARY: The following changes expected for less than half the time period
Visibility: 0.31 miles (0.50 km)
Ceiling: unknown
Clouds: missing
Weather: FG  (fog)

 AIRPORT MAP

 RUNWAY INFORMATION
Runway 08 Runway length 8858 ft Runway width 148 ft
Runway elevation 330 ft Runway displaced threshold 0 ft Runway heading 73
Runway 26 Runway length 8858 ft Runway width 148 ft
Runway elevation 336 ft Runway displaced threshold 0 ft Runway heading 253

 AIRPORT FREQUENCIES
Type APP Name LANDI APP Frequency 122.4 MHZ
Type ATIS Name ATIS Frequency 142.225 MHZ
Type TWR Name LANDI TWR Frequency 119.2 MHZ

 AIRPORT NEAR NAVIGATION AIDS
Type TACAN Name Landivisiau Frequency 115150 KHZ



Powered by Virtual Airlines Manager [v2.6.2]